الصفحة الرئيسية
METAR-TAF:

METAR-TAF

مطار :

Sidney Municipal Airport (Lloyd W. Carr Field)

سيدني, نبراسكا, الولايات المتحدة

دائرة عرض: 41-05-58N, خط طول: 102-59-08W, ارتفاع: 1314 متر

مراقبة الطقس الحالي

تاريخ ووقت الإصدار 51 دقيقة قبل الساعة 18:53UTC
ريح 3 عقدة من الشمال/الشمال الشرقي
درجة الحرارة 15°درجة مئوية
الرطوبة 18%
ضغط 1017 hPa
الرؤية: 16.1 كم
سماء صافية

METAR: KSNY 171853Z AUTO 02003KT 10SM CLR 15/M09 A3002 RMK AO2 SLP158 T01501089

زمن: 12:44 (19:44 UTC)

توقعات

تاريخ ووقت الإصدار 2ساعات و 23 دقيقة قبل الساعة 17:21UTC
التوقعات صالحة من17 الساعة 18 UTC إلى 18 الساعة 18 UTC
ريح 9 عقدة من الغرب
الرؤية: 10 كم
سماء صافية
من 18 الساعة 0900 UTC
ريح 11 عقدة من الغرب/الشمال الغربي
الرؤية: 10 كم
غيوم مفككة على ارتفاع 15000 قدم

TAF: KSNY 171721Z 1718/1818 26009KT P6SM SKC FM180900 30011KT P6SM BKN150

أرصاد الطقس والتوقعات من أكثر من 4000 مطار (تقارير الطقس للمطار METAR والتنبؤ بالطقس بالمطارTAF).

المحطات المتاحة هي النقط الصفراء والحمراء على الخريطة.

حرك المؤشر فوق النقطة لمعرفة اسم المحطة.

ثم انقر لمعرفة أرصاد وتوقعات الطقس.

لتغيير الخارطة: اضغط على الأزرار الخضراء مع رمز الصليب الأسود للتكبير. على الزر الأخضر مع شرطة للتصغير، أو على الأسهم الخضراء للخرائط المجاورة.


METAR-TAF: